sensor_id;sensor_type;location;lat;lon;timestamp;temperature;humidity
21184;DHT22;18176;49.502;11.754;2023-06-14T00:01:49;13.70;99.90
21184;DHT22;18176;49.502;11.754;2023-06-14T00:05:50;13.60;99.90
21184;DHT22;18176;49.502;11.754;2023-06-14T00:09:53;13.50;99.90
21184;DHT22;18176;49.502;11.754;2023-06-14T00:13:54;13.40;99.90
21184;DHT22;18176;49.502;11.754;2023-06-14T00:17:55;13.40;99.90
21184;DHT22;18176;49.502;11.754;2023-06-14T00:21:58;13.40;99.90
21184;DHT22;18176;49.502;11.754;2023-06-14T00:26:03;13.40;99.90
21184;DHT22;18176;49.502;11.754;2023-06-14T00:30:05;13.20;99.90
21184;DHT22;18176;49.502;11.754;2023-06-14T00:34:07;13.10;99.90
21184;DHT22;18176;49.502;11.754;2023-06-14T00:38:10;13.10;99.90
21184;DHT22;18176;49.502;11.754;2023-06-14T00:42:23;13.00;99.90
21184;DHT22;18176;49.502;11.754;2023-06-14T00:46:24;12.90;99.90
21184;DHT22;18176;49.502;11.754;2023-06-14T00:50:25;12.90;99.90
21184;DHT22;18176;49.502;11.754;2023-06-14T00:54:27;12.80;99.90
21184;DHT22;18176;49.502;11.754;2023-06-14T00:58:30;12.80;99.90
21184;DHT22;18176;49.502;11.754;2023-06-14T01:02:32;12.70;99.90
21184;DHT22;18176;49.502;11.754;2023-06-14T01:06:40;12.70;99.90
21184;DHT22;18176;49.502;11.754;2023-06-14T01:10:53;12.70;99.90
21184;DHT22;18176;49.502;11.754;2023-06-14T01:15:05;12.70;99.90
21184;DHT22;18176;49.502;11.754;2023-06-14T01:19:09;12.80;99.90
21184;DHT22;18176;49.502;11.754;2023-06-14T01:23:15;12.80;99.90
21184;DHT22;18176;49.502;11.754;2023-06-14T01:27:15;12.80;99.90
21184;DHT22;18176;49.502;11.754;2023-06-14T01:31:19;12.70;99.90
21184;DHT22;18176;49.502;11.754;2023-06-14T01:35:23;12.60;99.90
21184;DHT22;18176;49.502;11.754;2023-06-14T01:39:27;12.50;99.90
21184;DHT22;18176;49.502;11.754;2023-06-14T01:43:30;12.40;99.90
21184;DHT22;18176;49.502;11.754;2023-06-14T01:47:34;12.30;99.90
21184;DHT22;18176;49.502;11.754;2023-06-14T01:51:35;12.20;99.90
21184;DHT22;18176;49.502;11.754;2023-06-14T01:55:38;12.20;99.90
21184;DHT22;18176;49.502;11.754;2023-06-14T01:59:40;12.20;99.90
21184;DHT22;18176;49.502;11.754;2023-06-14T02:03:45;12.20;99.90
21184;DHT22;18176;49.502;11.754;2023-06-14T02:07:46;12.20;99.90
21184;DHT22;18176;49.502;11.754;2023-06-14T02:11:50;12.20;99.90
21184;DHT22;18176;49.502;11.754;2023-06-14T02:15:51;12.20;99.90
21184;DHT22;18176;49.502;11.754;2023-06-14T02:19:53;12.20;99.90
21184;DHT22;18176;49.502;11.754;2023-06-14T02:23:55;12.10;99.90
21184;DHT22;18176;49.502;11.754;2023-06-14T02:28:00;12.10;99.90
21184;DHT22;18176;49.502;11.754;2023-06-14T02:32:01;12.10;99.90
21184;DHT22;18176;49.502;11.754;2023-06-14T02:36:05;12.10;99.90
21184;DHT22;18176;49.502;11.754;2023-06-14T02:40:07;12.10;99.90
21184;DHT22;18176;49.502;11.754;2023-06-14T02:44:13;12.10;99.90
21184;DHT22;18176;49.502;11.754;2023-06-14T02:48:14;12.20;99.90
21184;DHT22;18176;49.502;11.754;2023-06-14T02:52:15;12.20;99.90
21184;DHT22;18176;49.502;11.754;2023-06-14T02:56:16;12.20;99.90
21184;DHT22;18176;49.502;11.754;2023-06-14T03:00:23;12.30;99.90
21184;DHT22;18176;49.502;11.754;2023-06-14T03:04:27;12.20;99.90
21184;DHT22;18176;49.502;11.754;2023-06-14T03:08:39;12.30;99.90
21184;DHT22;18176;49.502;11.754;2023-06-14T03:12:44;12.30;99.90
21184;DHT22;18176;49.502;11.754;2023-06-14T03:16:49;12.30;99.90
21184;DHT22;18176;49.502;11.754;2023-06-14T03:20:54;12.30;99.90
21184;DHT22;18176;49.502;11.754;2023-06-14T03:24:57;12.40;99.90
21184;DHT22;18176;49.502;11.754;2023-06-14T03:29:01;12.40;99.90
21184;DHT22;18176;49.502;11.754;2023-06-14T03:33:05;12.40;99.90
21184;DHT22;18176;49.502;11.754;2023-06-14T03:37:09;12.40;99.90
21184;DHT22;18176;49.502;11.754;2023-06-14T03:41:10;12.50;99.90
21184;DHT22;18176;49.502;11.754;2023-06-14T03:45:12;12.50;99.90
21184;DHT22;18176;49.502;11.754;2023-06-14T03:49:16;12.50;99.90
21184;DHT22;18176;49.502;11.754;2023-06-14T03:53:17;12.60;99.90
21184;DHT22;18176;49.502;11.754;2023-06-14T03:57:23;12.60;99.90
21184;DHT22;18176;49.502;11.754;2023-06-14T04:01:25;12.60;99.90
21184;DHT22;18176;49.502;11.754;2023-06-14T04:05:32;12.60;99.90
21184;DHT22;18176;49.502;11.754;2023-06-14T04:09:33;12.60;99.90
21184;DHT22;18176;49.502;11.754;2023-06-14T04:13:34;12.60;99.90
21184;DHT22;18176;49.502;11.754;2023-06-14T04:17:37;12.70;99.90
21184;DHT22;18176;49.502;11.754;2023-06-14T04:21:41;12.80;99.90
21184;DHT22;18176;49.502;11.754;2023-06-14T04:25:43;12.90;99.90
21184;DHT22;18176;49.502;11.754;2023-06-14T04:29:47;13.00;99.90
21184;DHT22;18176;49.502;11.754;2023-06-14T04:33:50;13.10;99.90
21184;DHT22;18176;49.502;11.754;2023-06-14T04:37:55;13.30;99.90
21184;DHT22;18176;49.502;11.754;2023-06-14T04:41:57;13.30;99.90
21184;DHT22;18176;49.502;11.754;2023-06-14T04:45:59;13.30;99.90
21184;DHT22;18176;49.502;11.754;2023-06-14T04:50:01;13.40;99.90
21184;DHT22;18176;49.502;11.754;2023-06-14T04:54:04;13.40;99.90
21184;DHT22;18176;49.502;11.754;2023-06-14T04:58:07;13.40;99.90
21184;DHT22;18176;49.502;11.754;2023-06-14T05:02:10;13.40;99.90
21184;DHT22;18176;49.502;11.754;2023-06-14T05:06:12;13.40;99.90
21184;DHT22;18176;49.502;11.754;2023-06-14T05:10:18;13.40;99.90
21184;DHT22;18176;49.502;11.754;2023-06-14T05:14:19;13.30;99.90
21184;DHT22;18176;49.502;11.754;2023-06-14T05:18:21;13.30;99.90
21184;DHT22;18176;49.502;11.754;2023-06-14T05:22:22;13.30;99.90
21184;DHT22;18176;49.502;11.754;2023-06-14T05:26:26;13.30;99.90
21184;DHT22;18176;49.502;11.754;2023-06-14T05:30:28;13.40;99.90
21184;DHT22;18176;49.502;11.754;2023-06-14T05:34:30;13.50;99.90
21184;DHT22;18176;49.502;11.754;2023-06-14T05:38:31;13.60;99.90
21184;DHT22;18176;49.502;11.754;2023-06-14T05:42:34;13.70;99.90
21184;DHT22;18176;49.502;11.754;2023-06-14T05:46:35;13.70;99.90
21184;DHT22;18176;49.502;11.754;2023-06-14T05:50:37;13.90;99.90
21184;DHT22;18176;49.502;11.754;2023-06-14T05:54:38;14.00;99.90
21184;DHT22;18176;49.502;11.754;2023-06-14T05:58:42;14.20;99.90
21184;DHT22;18176;49.502;11.754;2023-06-14T06:02:43;14.30;99.90
21184;DHT22;18176;49.502;11.754;2023-06-14T06:06:45;14.50;99.90
21184;DHT22;18176;49.502;11.754;2023-06-14T06:10:46;14.50;99.90
21184;DHT22;18176;49.502;11.754;2023-06-14T06:14:48;14.60;99.90
21184;DHT22;18176;49.502;11.754;2023-06-14T06:18:49;14.90;99.90
21184;DHT22;18176;49.502;11.754;2023-06-14T06:22:50;15.00;99.90
21184;DHT22;18176;49.502;11.754;2023-06-14T06:26:51;15.10;99.90
21184;DHT22;18176;49.502;11.754;2023-06-14T06:30:54;15.30;99.90
21184;DHT22;18176;49.502;11.754;2023-06-14T06:34:55;15.50;99.90
21184;DHT22;18176;49.502;11.754;2023-06-14T06:38:57;15.80;99.90
21184;DHT22;18176;49.502;11.754;2023-06-14T06:42:57;16.20;99.90
21184;DHT22;18176;49.502;11.754;2023-06-14T06:47:00;16.50;99.90
21184;DHT22;18176;49.502;11.754;2023-06-14T06:51:01;16.70;99.90
21184;DHT22;18176;49.502;11.754;2023-06-14T06:55:03;16.90;99.90
21184;DHT22;18176;49.502;11.754;2023-06-14T06:59:04;17.00;99.90
21184;DHT22;18176;49.502;11.754;2023-06-14T07:03:07;17.00;99.90
21184;DHT22;18176;49.502;11.754;2023-06-14T07:07:07;16.70;99.90
21184;DHT22;18176;49.502;11.754;2023-06-14T07:11:08;16.80;99.90
21184;DHT22;18176;49.502;11.754;2023-06-14T07:15:10;16.90;99.90
21184;DHT22;18176;49.502;11.754;2023-06-14T07:19:14;16.90;99.90
21184;DHT22;18176;49.502;11.754;2023-06-14T07:23:14;17.10;99.90
21184;DHT22;18176;49.502;11.754;2023-06-14T07:27:15;17.00;99.90
21184;DHT22;18176;49.502;11.754;2023-06-14T07:31:15;17.30;99.90
21184;DHT22;18176;49.502;11.754;2023-06-14T07:35:22;17.50;99.90
21184;DHT22;18176;49.502;11.754;2023-06-14T07:39:22;17.50;99.90
21184;DHT22;18176;49.502;11.754;2023-06-14T07:43:23;17.70;99.90
21184;DHT22;18176;49.502;11.754;2023-06-14T07:47:23;18.00;99.90
21184;DHT22;18176;49.502;11.754;2023-06-14T07:51:26;18.10;99.90
21184;DHT22;18176;49.502;11.754;2023-06-14T07:55:26;18.20;99.90
21184;DHT22;18176;49.502;11.754;2023-06-14T07:59:41;18.40;99.90
21184;DHT22;18176;49.502;11.754;2023-06-14T08:03:42;18.20;99.90
21184;DHT22;18176;49.502;11.754;2023-06-14T08:07:46;18.30;99.90
21184;DHT22;18176;49.502;11.754;2023-06-14T08:11:46;19.30;99.90
21184;DHT22;18176;49.502;11.754;2023-06-14T08:15:46;21.40;99.90
21184;DHT22;18176;49.502;11.754;2023-06-14T08:19:47;21.80;99.90
21184;DHT22;18176;49.502;11.754;2023-06-14T08:23:50;21.70;98.60
21184;DHT22;18176;49.502;11.754;2023-06-14T08:27:51;21.90;97.70
21184;DHT22;18176;49.502;11.754;2023-06-14T08:31:51;22.50;97.50
21184;DHT22;18176;49.502;11.754;2023-06-14T08:35:51;23.10;92.40
21184;DHT22;18176;49.502;11.754;2023-06-14T08:39:54;22.10;94.10
21184;DHT22;18176;49.502;11.754;2023-06-14T08:43:55;22.40;95.10
21184;DHT22;18176;49.502;11.754;2023-06-14T08:47:57;23.20;91.80
21184;DHT22;18176;49.502;11.754;2023-06-14T08:52:00;23.60;92.40
21184;DHT22;18176;49.502;11.754;2023-06-14T08:56:04;24.30;90.00
21184;DHT22;18176;49.502;11.754;2023-06-14T09:00:12;24.10;90.00
21184;DHT22;18176;49.502;11.754;2023-06-14T09:04:14;23.30;88.00
21184;DHT22;18176;49.502;11.754;2023-06-14T09:08:17;22.10;90.10
21184;DHT22;18176;49.502;11.754;2023-06-14T09:12:21;22.60;90.70
21184;DHT22;18176;49.502;11.754;2023-06-14T09:16:22;23.10;90.20
21184;DHT22;18176;49.502;11.754;2023-06-14T09:20:24;23.70;89.00
21184;DHT22;18176;49.502;11.754;2023-06-14T09:24:25;23.60;85.10
21184;DHT22;18176;49.502;11.754;2023-06-14T09:28:29;23.30;85.10
21184;DHT22;18176;49.502;11.754;2023-06-14T09:32:30;22.70;88.20
21184;DHT22;18176;49.502;11.754;2023-06-14T09:36:32;22.30;89.40
21184;DHT22;18176;49.502;11.754;2023-06-14T09:40:34;21.90;89.60
21184;DHT22;18176;49.502;11.754;2023-06-14T09:44:38;23.20;87.80
21184;DHT22;18176;49.502;11.754;2023-06-14T09:48:39;24.70;83.80
21184;DHT22;18176;49.502;11.754;2023-06-14T09:52:42;23.80;84.90
21184;DHT22;18176;49.502;11.754;2023-06-14T09:56:45;23.30;84.00
21184;DHT22;18176;49.502;11.754;2023-06-14T10:00:50;22.80;85.00
21184;DHT22;18176;49.502;11.754;2023-06-14T10:04:56;22.90;84.20
21184;DHT22;18176;49.502;11.754;2023-06-14T10:09:04;23.10;84.80
21184;DHT22;18176;49.502;11.754;2023-06-14T10:13:08;24.20;78.50
21184;DHT22;18176;49.502;11.754;2023-06-14T10:17:20;25.70;76.30
21184;DHT22;18176;49.502;11.754;2023-06-14T10:21:32;25.40;74.90
21184;DHT22;18176;49.502;11.754;2023-06-14T10:25:39;25.80;69.30
21184;DHT22;18176;49.502;11.754;2023-06-14T10:30:03;24.60;71.70
21184;DHT22;18176;49.502;11.754;2023-06-14T10:34:08;23.30;75.00
21184;DHT22;18176;49.502;11.754;2023-06-14T10:38:10;22.30;80.00
21184;DHT22;18176;49.502;11.754;2023-06-14T10:42:12;21.80;83.90
21184;DHT22;18176;49.502;11.754;2023-06-14T10:46:17;21.20;85.70
21184;DHT22;18176;49.502;11.754;2023-06-14T10:50:27;20.90;85.10
21184;DHT22;18176;49.502;11.754;2023-06-14T10:54:30;21.20;81.20
21184;DHT22;18176;49.502;11.754;2023-06-14T10:58:31;21.50;81.20
21184;DHT22;18176;49.502;11.754;2023-06-14T11:07:38;21.80;81.60
21184;DHT22;18176;49.502;11.754;2023-06-14T11:11:56;23.50;78.50
21184;DHT22;18176;49.502;11.754;2023-06-14T11:15:57;23.60;76.50
21184;DHT22;18176;49.502;11.754;2023-06-14T11:20:08;24.90;74.60
21184;DHT22;18176;49.502;11.754;2023-06-14T11:24:20;25.60;67.80
21184;DHT22;18176;49.502;11.754;2023-06-14T11:28:20;24.90;67.50
21184;DHT22;18176;49.502;11.754;2023-06-14T11:32:21;24.50;69.80
21184;DHT22;18176;49.502;11.754;2023-06-14T11:36:21;24.50;69.20
21184;DHT22;18176;49.502;11.754;2023-06-14T11:40:25;25.90;67.30
21184;DHT22;18176;49.502;11.754;2023-06-14T11:44:26;25.80;65.10
21184;DHT22;18176;49.502;11.754;2023-06-14T11:48:36;24.50;66.80
21184;DHT22;18176;49.502;11.754;2023-06-14T11:52:37;24.70;68.20
21184;DHT22;18176;49.502;11.754;2023-06-14T11:56:40;26.10;68.70
21184;DHT22;18176;49.502;11.754;2023-06-14T12:00:42;27.10;63.40
21184;DHT22;18176;49.502;11.754;2023-06-14T12:04:43;27.30;61.10
21184;DHT22;18176;49.502;11.754;2023-06-14T12:08:44;27.40;57.40
21184;DHT22;18176;49.502;11.754;2023-06-14T12:12:49;26.80;58.10
21184;DHT22;18176;49.502;11.754;2023-06-14T12:16:49;25.60;57.60
21184;DHT22;18176;49.502;11.754;2023-06-14T12:20:50;24.30;61.50
21184;DHT22;18176;49.502;11.754;2023-06-14T12:24:52;25.20;60.30
21184;DHT22;18176;49.502;11.754;2023-06-14T12:28:56;26.00;57.50
21184;DHT22;18176;49.502;11.754;2023-06-14T12:32:57;26.60;58.80
21184;DHT22;18176;49.502;11.754;2023-06-14T12:36:57;27.00;57.80
21184;DHT22;18176;49.502;11.754;2023-06-14T12:40:58;26.60;59.80
21184;DHT22;18176;49.502;11.754;2023-06-14T12:45:01;26.30;63.00
21184;DHT22;18176;49.502;11.754;2023-06-14T12:49:01;26.70;62.00
21184;DHT22;18176;49.502;11.754;2023-06-14T12:53:02;26.60;61.40
21184;DHT22;18176;49.502;11.754;2023-06-14T12:57:03;27.20;59.70
21184;DHT22;18176;49.502;11.754;2023-06-14T13:01:06;26.50;59.20
21184;DHT22;18176;49.502;11.754;2023-06-14T13:05:07;27.30;57.50
21184;DHT22;18176;49.502;11.754;2023-06-14T13:09:07;27.80;56.40
21184;DHT22;18176;49.502;11.754;2023-06-14T13:13:08;27.80;56.50
21184;DHT22;18176;49.502;11.754;2023-06-14T13:17:12;28.00;56.70
21184;DHT22;18176;49.502;11.754;2023-06-14T13:21:12;27.50;58.60
21184;DHT22;18176;49.502;11.754;2023-06-14T13:25:13;26.70;57.00
21184;DHT22;18176;49.502;11.754;2023-06-14T13:29:13;26.30;57.40
21184;DHT22;18176;49.502;11.754;2023-06-14T13:33:16;24.80;59.20
21184;DHT22;18176;49.502;11.754;2023-06-14T13:37:17;24.50;61.80
21184;DHT22;18176;49.502;11.754;2023-06-14T13:41:17;24.50;63.20
21184;DHT22;18176;49.502;11.754;2023-06-14T13:45:18;24.10;62.90
21184;DHT22;18176;49.502;11.754;2023-06-14T13:49:21;23.70;64.80
21184;DHT22;18176;49.502;11.754;2023-06-14T13:53:21;23.80;65.60
21184;DHT22;18176;49.502;11.754;2023-06-14T13:57:22;23.60;65.50
21184;DHT22;18176;49.502;11.754;2023-06-14T14:01:23;23.70;66.20
21184;DHT22;18176;49.502;11.754;2023-06-14T14:05:26;23.50;65.50
21184;DHT22;18176;49.502;11.754;2023-06-14T14:09:26;23.10;66.10
21184;DHT22;18176;49.502;11.754;2023-06-14T14:13:27;23.20;66.70
21184;DHT22;18176;49.502;11.754;2023-06-14T14:17:28;23.30;66.10
21184;DHT22;18176;49.502;11.754;2023-06-14T14:21:31;23.80;64.50
21184;DHT22;18176;49.502;11.754;2023-06-14T14:25:32;24.00;65.90
21184;DHT22;18176;49.502;11.754;2023-06-14T14:29:34;24.20;61.90
21184;DHT22;18176;49.502;11.754;2023-06-14T14:33:35;23.60;61.10
21184;DHT22;18176;49.502;11.754;2023-06-14T14:37:38;23.40;63.90
21184;DHT22;18176;49.502;11.754;2023-06-14T14:41:38;23.80;64.70
21184;DHT22;18176;49.502;11.754;2023-06-14T14:45:38;23.60;60.90
21184;DHT22;18176;49.502;11.754;2023-06-14T14:49:39;23.20;63.50
21184;DHT22;18176;49.502;11.754;2023-06-14T14:53:42;23.60;63.20
21184;DHT22;18176;49.502;11.754;2023-06-14T14:57:43;24.20;62.70
21184;DHT22;18176;49.502;11.754;2023-06-14T15:01:43;24.80;60.70
21184;DHT22;18176;49.502;11.754;2023-06-14T15:05:44;24.90;58.50
21184;DHT22;18176;49.502;11.754;2023-06-14T15:09:47;25.40;58.80
21184;DHT22;18176;49.502;11.754;2023-06-14T15:13:48;26.40;57.30
21184;DHT22;18176;49.502;11.754;2023-06-14T15:17:49;26.20;57.10
21184;DHT22;18176;49.502;11.754;2023-06-14T15:21:49;25.70;56.50
21184;DHT22;18176;49.502;11.754;2023-06-14T15:25:52;25.90;58.00
21184;DHT22;18176;49.502;11.754;2023-06-14T15:29:53;25.60;56.20
21184;DHT22;18176;49.502;11.754;2023-06-14T15:33:53;25.30;56.70
21184;DHT22;18176;49.502;11.754;2023-06-14T15:37:53;25.40;56.20
21184;DHT22;18176;49.502;11.754;2023-06-14T15:41:56;26.10;56.40
21184;DHT22;18176;49.502;11.754;2023-06-14T15:45:56;26.30;54.60
21184;DHT22;18176;49.502;11.754;2023-06-14T15:49:57;26.90;55.80
21184;DHT22;18176;49.502;11.754;2023-06-14T15:53:57;27.70;55.30
21184;DHT22;18176;49.502;11.754;2023-06-14T15:58:00;29.00;53.00
21184;DHT22;18176;49.502;11.754;2023-06-14T16:02:00;28.80;52.00
21184;DHT22;18176;49.502;11.754;2023-06-14T16:06:01;29.40;51.90
21184;DHT22;18176;49.502;11.754;2023-06-14T16:10:01;29.80;52.00
21184;DHT22;18176;49.502;11.754;2023-06-14T16:14:04;29.80;50.50
21184;DHT22;18176;49.502;11.754;2023-06-14T16:18:05;29.80;51.60
21184;DHT22;18176;49.502;11.754;2023-06-14T16:22:05;30.40;49.50
21184;DHT22;18176;49.502;11.754;2023-06-14T16:26:10;30.50;51.00
21184;DHT22;18176;49.502;11.754;2023-06-14T16:30:15;30.30;50.00
21184;DHT22;18176;49.502;11.754;2023-06-14T16:34:15;30.00;50.30
21184;DHT22;18176;49.502;11.754;2023-06-14T16:38:16;29.00;50.40
21184;DHT22;18176;49.502;11.754;2023-06-14T16:42:18;28.50;51.90
21184;DHT22;18176;49.502;11.754;2023-06-14T16:46:30;27.30;52.70
21184;DHT22;18176;49.502;11.754;2023-06-14T16:50:31;25.90;53.70
21184;DHT22;18176;49.502;11.754;2023-06-14T16:54:33;24.70;56.40
21184;DHT22;18176;49.502;11.754;2023-06-14T16:58:34;24.30;57.80
21184;DHT22;18176;49.502;11.754;2023-06-14T17:02:36;24.10;58.50
21184;DHT22;18176;49.502;11.754;2023-06-14T17:06:38;23.60;59.20
21184;DHT22;18176;49.502;11.754;2023-06-14T17:10:38;23.20;58.80
21184;DHT22;18176;49.502;11.754;2023-06-14T17:14:38;22.90;59.00
21184;DHT22;18176;49.502;11.754;2023-06-14T17:18:42;23.40;60.00
21184;DHT22;18176;49.502;11.754;2023-06-14T17:22:42;23.90;58.60
21184;DHT22;18176;49.502;11.754;2023-06-14T17:26:42;23.90;59.00
21184;DHT22;18176;49.502;11.754;2023-06-14T17:30:45;24.00;58.70
21184;DHT22;18176;49.502;11.754;2023-06-14T17:34:48;24.00;58.80
21184;DHT22;18176;49.502;11.754;2023-06-14T17:38:49;24.00;59.00
21184;DHT22;18176;49.502;11.754;2023-06-14T17:42:49;23.90;59.20
21184;DHT22;18176;49.502;11.754;2023-06-14T17:46:50;23.70;59.60
21184;DHT22;18176;49.502;11.754;2023-06-14T17:50:52;23.70;59.00
21184;DHT22;18176;49.502;11.754;2023-06-14T17:54:53;23.40;60.00
21184;DHT22;18176;49.502;11.754;2023-06-14T17:58:53;22.70;61.60
21184;DHT22;18176;49.502;11.754;2023-06-14T18:02:53;22.10;63.30
21184;DHT22;18176;49.502;11.754;2023-06-14T18:06:58;21.70;65.50
21184;DHT22;18176;49.502;11.754;2023-06-14T18:10:58;21.40;66.00
21184;DHT22;18176;49.502;11.754;2023-06-14T18:14:59;21.20;66.20
21184;DHT22;18176;49.502;11.754;2023-06-14T18:18:59;21.20;66.00
21184;DHT22;18176;49.502;11.754;2023-06-14T18:23:02;21.30;66.10
21184;DHT22;18176;49.502;11.754;2023-06-14T18:27:03;21.10;66.60
21184;DHT22;18176;49.502;11.754;2023-06-14T18:31:06;21.00;67.40
21184;DHT22;18176;49.502;11.754;2023-06-14T18:35:07;20.80;67.70
21184;DHT22;18176;49.502;11.754;2023-06-14T18:39:13;20.60;69.10
21184;DHT22;18176;49.502;11.754;2023-06-14T18:43:14;20.50;69.30
21184;DHT22;18176;49.502;11.754;2023-06-14T18:47:15;20.40;69.70
21184;DHT22;18176;49.502;11.754;2023-06-14T18:51:15;20.30;71.50
21184;DHT22;18176;49.502;11.754;2023-06-14T18:55:19;20.20;71.40
21184;DHT22;18176;49.502;11.754;2023-06-14T18:59:20;20.00;74.20
21184;DHT22;18176;49.502;11.754;2023-06-14T19:03:20;19.80;77.00
21184;DHT22;18176;49.502;11.754;2023-06-14T19:07:21;19.50;77.80
21184;DHT22;18176;49.502;11.754;2023-06-14T19:11:24;19.10;80.90
21184;DHT22;18176;49.502;11.754;2023-06-14T19:15:25;18.90;80.60
21184;DHT22;18176;49.502;11.754;2023-06-14T19:19:27;18.60;82.80
21184;DHT22;18176;49.502;11.754;2023-06-14T19:23:27;18.30;84.10
21184;DHT22;18176;49.502;11.754;2023-06-14T19:27:32;18.10;85.90
21184;DHT22;18176;49.502;11.754;2023-06-14T19:31:33;17.80;87.00
21184;DHT22;18176;49.502;11.754;2023-06-14T19:35:34;17.60;87.90
21184;DHT22;18176;49.502;11.754;2023-06-14T19:39:34;17.30;89.40
21184;DHT22;18176;49.502;11.754;2023-06-14T19:43:37;17.00;90.20
21184;DHT22;18176;49.502;11.754;2023-06-14T19:47:37;16.80;90.40
21184;DHT22;18176;49.502;11.754;2023-06-14T19:51:38;16.70;90.80
21184;DHT22;18176;49.502;11.754;2023-06-14T19:55:39;16.60;91.10
21184;DHT22;18176;49.502;11.754;2023-06-14T19:59:42;16.40;91.50
21184;DHT22;18176;49.502;11.754;2023-06-14T20:03:43;16.40;91.90
21184;DHT22;18176;49.502;11.754;2023-06-14T20:07:46;16.30;92.20
21184;DHT22;18176;49.502;11.754;2023-06-14T20:11:47;16.20;91.40
21184;DHT22;18176;49.502;11.754;2023-06-14T20:15:50;16.30;91.10
21184;DHT22;18176;49.502;11.754;2023-06-14T20:19:52;16.40;91.40
21184;DHT22;18176;49.502;11.754;2023-06-14T20:23:53;16.30;91.50
21184;DHT22;18176;49.502;11.754;2023-06-14T20:27:53;16.30;92.10
21184;DHT22;18176;49.502;11.754;2023-06-14T20:31:57;16.10;93.00
21184;DHT22;18176;49.502;11.754;2023-06-14T20:35:57;16.00;92.50
21184;DHT22;18176;49.502;11.754;2023-06-14T20:39:58;15.90;92.70
21184;DHT22;18176;49.502;11.754;2023-06-14T20:44:04;15.80;93.40
21184;DHT22;18176;49.502;11.754;2023-06-14T20:48:09;15.70;93.30
21184;DHT22;18176;49.502;11.754;2023-06-14T20:52:10;15.60;94.00
21184;DHT22;18176;49.502;11.754;2023-06-14T20:56:11;15.50;94.30
21184;DHT22;18176;49.502;11.754;2023-06-14T21:00:13;15.40;94.40
21184;DHT22;18176;49.502;11.754;2023-06-14T21:04:18;15.30;95.20
21184;DHT22;18176;49.502;11.754;2023-06-14T21:08:19;15.20;95.40
21184;DHT22;18176;49.502;11.754;2023-06-14T21:12:20;15.10;96.10
21184;DHT22;18176;49.502;11.754;2023-06-14T21:16:21;15.00;96.90
21184;DHT22;18176;49.502;11.754;2023-06-14T21:20:24;14.90;97.40
21184;DHT22;18176;49.502;11.754;2023-06-14T21:24:25;14.70;98.20
21184;DHT22;18176;49.502;11.754;2023-06-14T21:28:25;14.70;99.10
21184;DHT22;18176;49.502;11.754;2023-06-14T21:32:26;14.60;99.70
21184;DHT22;18176;49.502;11.754;2023-06-14T21:36:29;14.50;99.90
21184;DHT22;18176;49.502;11.754;2023-06-14T21:40:33;14.40;99.90
21184;DHT22;18176;49.502;11.754;2023-06-14T21:44:38;14.30;99.90
21184;DHT22;18176;49.502;11.754;2023-06-14T21:48:41;14.30;99.90
21184;DHT22;18176;49.502;11.754;2023-06-14T21:52:44;14.20;99.90
21184;DHT22;18176;49.502;11.754;2023-06-14T21:56:46;14.10;99.90
21184;DHT22;18176;49.502;11.754;2023-06-14T22:00:46;13.90;99.90
21184;DHT22;18176;49.502;11.754;2023-06-14T22:04:47;13.80;99.90
21184;DHT22;18176;49.502;11.754;2023-06-14T22:08:50;13.80;99.90
21184;DHT22;18176;49.502;11.754;2023-06-14T22:12:51;13.70;99.90
21184;DHT22;18176;49.502;11.754;2023-06-14T22:16:56;13.60;99.90
21184;DHT22;18176;49.502;11.754;2023-06-14T22:20:58;13.50;99.90
21184;DHT22;18176;49.502;11.754;2023-06-14T22:25:03;13.50;99.90
21184;DHT22;18176;49.502;11.754;2023-06-14T22:29:08;13.40;99.90
21184;DHT22;18176;49.502;11.754;2023-06-14T22:33:09;13.30;99.90
21184;DHT22;18176;49.502;11.754;2023-06-14T22:37:10;13.20;99.90
21184;DHT22;18176;49.502;11.754;2023-06-14T22:41:14;13.20;99.90
21184;DHT22;18176;49.502;11.754;2023-06-14T22:45:15;13.10;99.90
21184;DHT22;18176;49.502;11.754;2023-06-14T22:49:24;13.10;99.90
21184;DHT22;18176;49.502;11.754;2023-06-14T22:53:28;13.00;99.90
21184;DHT22;18176;49.502;11.754;2023-06-14T22:57:33;13.00;99.90
21184;DHT22;18176;49.502;11.754;2023-06-14T23:01:33;12.90;99.90
21184;DHT22;18176;49.502;11.754;2023-06-14T23:05:34;12.80;99.90
21184;DHT22;18176;49.502;11.754;2023-06-14T23:09:35;12.80;99.90
21184;DHT22;18176;49.502;11.754;2023-06-14T23:13:40;12.60;99.90
21184;DHT22;18176;49.502;11.754;2023-06-14T23:17:41;12.60;99.90
21184;DHT22;18176;49.502;11.754;2023-06-14T23:21:42;12.50;99.90
21184;DHT22;18176;49.502;11.754;2023-06-14T23:25:44;12.50;99.90
21184;DHT22;18176;49.502;11.754;2023-06-14T23:29:48;12.40;99.90
21184;DHT22;18176;49.502;11.754;2023-06-14T23:33:50;12.40;99.90
21184;DHT22;18176;49.502;11.754;2023-06-14T23:37:53;12.30;99.90
21184;DHT22;18176;49.502;11.754;2023-06-14T23:41:54;12.30;99.90
21184;DHT22;18176;49.502;11.754;2023-06-14T23:45:58;12.30;99.90
21184;DHT22;18176;49.502;11.754;2023-06-14T23:50:00;12.20;99.90
21184;DHT22;18176;49.502;11.754;2023-06-14T23:54:01;12.20;99.90
21184;DHT22;18176;49.502;11.754;2023-06-14T23:58:03;12.10;99.90
